sensor_id;sensor_type;location;lat;lon;timestamp;temperature;humidity
10986;DHT22;5546;48.714;8.738;2023-06-22T00:03:10;23.10;98.40
10986;DHT22;5546;48.714;8.738;2023-06-22T00:05:35;23.10;98.70
10986;DHT22;5546;48.714;8.738;2023-06-22T00:08:03;23.20;98.60
10986;DHT22;5546;48.714;8.738;2023-06-22T00:10:30;23.00;98.90
10986;DHT22;5546;48.714;8.738;2023-06-22T00:15:21;23.10;99.40
10986;DHT22;5546;48.714;8.738;2023-06-22T00:20:13;23.20;98.70
10986;DHT22;5546;48.714;8.738;2023-06-22T00:22:39;23.10;98.60
10986;DHT22;5546;48.714;8.738;2023-06-22T00:25:06;23.10;99.00
10986;DHT22;5546;48.714;8.738;2023-06-22T00:27:32;22.90;99.00
10986;DHT22;5546;48.714;8.738;2023-06-22T00:29:57;22.80;99.40
10986;DHT22;5546;48.714;8.738;2023-06-22T00:32:23;23.00;98.90
10986;DHT22;5546;48.714;8.738;2023-06-22T00:39:43;22.80;99.40
10986;DHT22;5546;48.714;8.738;2023-06-22T00:42:08;22.60;99.90
10986;DHT22;5546;48.714;8.738;2023-06-22T00:44:35;22.70;99.90
10986;DHT22;5546;48.714;8.738;2023-06-22T00:51:53;22.60;99.90
10986;DHT22;5546;48.714;8.738;2023-06-22T00:54:20;22.60;99.90
10986;DHT22;5546;48.714;8.738;2023-06-22T00:56:56;22.90;99.90
10986;DHT22;5546;48.714;8.738;2023-06-22T00:59:23;23.20;99.50
10986;DHT22;5546;48.714;8.738;2023-06-22T01:01:49;23.20;99.30
10986;DHT22;5546;48.714;8.738;2023-06-22T01:04:15;22.90;99.70
10986;DHT22;5546;48.714;8.738;2023-06-22T01:07:10;22.70;99.80
10986;DHT22;5546;48.714;8.738;2023-06-22T01:12:16;22.70;99.90
10986;DHT22;5546;48.714;8.738;2023-06-22T01:14:49;22.80;99.80
10986;DHT22;5546;48.714;8.738;2023-06-22T01:17:19;23.00;99.30
10986;DHT22;5546;48.714;8.738;2023-06-22T01:19:47;22.70;99.60
10986;DHT22;5546;48.714;8.738;2023-06-22T01:22:16;22.50;99.90
10986;DHT22;5546;48.714;8.738;2023-06-22T01:24:48;22.50;99.90
10986;DHT22;5546;48.714;8.738;2023-06-22T01:30:03;22.70;99.80
10986;DHT22;5546;48.714;8.738;2023-06-22T01:32:33;22.70;99.90
10986;DHT22;5546;48.714;8.738;2023-06-22T01:35:01;22.60;99.90
10986;DHT22;5546;48.714;8.738;2023-06-22T01:37:29;22.80;99.50
10986;DHT22;5546;48.714;8.738;2023-06-22T01:39:55;22.70;99.70
10986;DHT22;5546;48.714;8.738;2023-06-22T01:42:24;22.70;99.40
10986;DHT22;5546;48.714;8.738;2023-06-22T01:44:51;22.50;99.60
10986;DHT22;5546;48.714;8.738;2023-06-22T01:47:17;22.40;99.90
10986;DHT22;5546;48.714;8.738;2023-06-22T01:49:43;22.10;99.90
10986;DHT22;5546;48.714;8.738;2023-06-22T01:52:09;22.40;99.90
10986;DHT22;5546;48.714;8.738;2023-06-22T01:57:01;22.10;99.90
10986;DHT22;5546;48.714;8.738;2023-06-22T02:02:06;22.40;99.90
10986;DHT22;5546;48.714;8.738;2023-06-22T02:04:48;22.30;99.80
10986;DHT22;5546;48.714;8.738;2023-06-22T02:07:18;22.20;99.90
10986;DHT22;5546;48.714;8.738;2023-06-22T02:09:45;22.30;99.90
10986;DHT22;5546;48.714;8.738;2023-06-22T02:12:13;22.30;99.80
10986;DHT22;5546;48.714;8.738;2023-06-22T02:14:41;22.40;99.70
10986;DHT22;5546;48.714;8.738;2023-06-22T02:17:08;22.60;99.20
10986;DHT22;5546;48.714;8.738;2023-06-22T02:19:38;22.50;99.30
10986;DHT22;5546;48.714;8.738;2023-06-22T02:22:04;22.20;99.60
10986;DHT22;5546;48.714;8.738;2023-06-22T02:24:30;22.30;99.40
10986;DHT22;5546;48.714;8.738;2023-06-22T02:27:01;22.40;99.50
10986;DHT22;5546;48.714;8.738;2023-06-22T02:29:27;22.40;99.40
10986;DHT22;5546;48.714;8.738;2023-06-22T02:31:54;22.40;99.30
10986;DHT22;5546;48.714;8.738;2023-06-22T02:34:21;22.10;99.90
10986;DHT22;5546;48.714;8.738;2023-06-22T02:36:47;22.20;99.90
10986;DHT22;5546;48.714;8.738;2023-06-22T02:39:20;22.00;99.90
10986;DHT22;5546;48.714;8.738;2023-06-22T02:41:50;22.00;99.90
10986;DHT22;5546;48.714;8.738;2023-06-22T02:44:17;21.90;99.90
10986;DHT22;5546;48.714;8.738;2023-06-22T02:46:43;21.90;99.90
10986;DHT22;5546;48.714;8.738;2023-06-22T02:56:28;21.90;99.80
10986;DHT22;5546;48.714;8.738;2023-06-22T03:01:27;22.00;99.50
10986;DHT22;5546;48.714;8.738;2023-06-22T03:03:53;22.20;99.20
10986;DHT22;5546;48.714;8.738;2023-06-22T03:08:51;22.00;99.40
10986;DHT22;5546;48.714;8.738;2023-06-22T03:11:17;21.80;99.70
10986;DHT22;5546;48.714;8.738;2023-06-22T03:13:43;22.90;99.90
10986;DHT22;5546;48.714;8.738;2023-06-22T03:25:53;21.70;99.90
10986;DHT22;5546;48.714;8.738;2023-06-22T03:28:21;21.90;99.80
10986;DHT22;5546;48.714;8.738;2023-06-22T03:40:30;21.80;99.60
10986;DHT22;5546;48.714;8.738;2023-06-22T03:42:56;21.60;99.80
10986;DHT22;5546;48.714;8.738;2023-06-22T03:50:13;21.60;99.80
10986;DHT22;5546;48.714;8.738;2023-06-22T03:55:07;21.30;99.90
10986;DHT22;5546;48.714;8.738;2023-06-22T03:57:32;21.40;99.90
10986;DHT22;5546;48.714;8.738;2023-06-22T03:59:58;21.60;99.90
10986;DHT22;5546;48.714;8.738;2023-06-22T04:02:24;21.50;99.90
10986;DHT22;5546;48.714;8.738;2023-06-22T04:04:50;21.70;99.90
10986;DHT22;5546;48.714;8.738;2023-06-22T04:12:07;22.00;99.80
10986;DHT22;5546;48.714;8.738;2023-06-22T04:16:59;21.70;99.90
10986;DHT22;5546;48.714;8.738;2023-06-22T04:34:04;22.30;99.40
10986;DHT22;5546;48.714;8.738;2023-06-22T04:36:36;22.30;99.50
10986;DHT22;5546;48.714;8.738;2023-06-22T04:39:06;22.40;99.20
10986;DHT22;5546;48.714;8.738;2023-06-22T04:41:32;22.30;99.30
10986;DHT22;5546;48.714;8.738;2023-06-22T04:44:11;22.50;99.00
10986;DHT22;5546;48.714;8.738;2023-06-22T04:46:37;22.80;98.70
10986;DHT22;5546;48.714;8.738;2023-06-22T04:49:07;23.00;98.20
10986;DHT22;5546;48.714;8.738;2023-06-22T04:51:40;22.80;98.30
10986;DHT22;5546;48.714;8.738;2023-06-22T04:54:07;23.00;98.20
10986;DHT22;5546;48.714;8.738;2023-06-22T04:56:33;23.20;98.10
10986;DHT22;5546;48.714;8.738;2023-06-22T05:03:51;23.60;97.20
10986;DHT22;5546;48.714;8.738;2023-06-22T05:11:12;23.30;97.80
10986;DHT22;5546;48.714;8.738;2023-06-22T05:13:38;23.20;97.60
10986;DHT22;5546;48.714;8.738;2023-06-22T05:18:31;23.80;97.10
10986;DHT22;5546;48.714;8.738;2023-06-22T05:20:58;24.00;96.70
10986;DHT22;5546;48.714;8.738;2023-06-22T05:23:24;23.80;96.80
10986;DHT22;5546;48.714;8.738;2023-06-22T05:30:41;24.20;96.50
10986;DHT22;5546;48.714;8.738;2023-06-22T05:33:07;24.40;95.90
10986;DHT22;5546;48.714;8.738;2023-06-22T05:40:24;25.00;95.30
10986;DHT22;5546;48.714;8.738;2023-06-22T05:42:50;25.30;94.50
10986;DHT22;5546;48.714;8.738;2023-06-22T05:47:41;25.80;93.90
10986;DHT22;5546;48.714;8.738;2023-06-22T05:50:07;26.30;93.20
10986;DHT22;5546;48.714;8.738;2023-06-22T05:52:34;26.40;93.00
10986;DHT22;5546;48.714;8.738;2023-06-22T05:55:02;26.60;92.50
10986;DHT22;5546;48.714;8.738;2023-06-22T05:57:28;26.20;93.00
10986;DHT22;5546;48.714;8.738;2023-06-22T05:59:53;26.20;93.40
10986;DHT22;5546;48.714;8.738;2023-06-22T06:02:19;26.50;92.90
10986;DHT22;5546;48.714;8.738;2023-06-22T06:04:45;26.90;92.40
10986;DHT22;5546;48.714;8.738;2023-06-22T06:07:10;26.80;92.40
10986;DHT22;5546;48.714;8.738;2023-06-22T06:09:36;27.00;91.90
10986;DHT22;5546;48.714;8.738;2023-06-22T06:12:02;27.90;90.90
10986;DHT22;5546;48.714;8.738;2023-06-22T06:16:54;28.40;90.00
10986;DHT22;5546;48.714;8.738;2023-06-22T06:21:46;28.90;87.40
10986;DHT22;5546;48.714;8.738;2023-06-22T06:26:38;30.00;83.80
10986;DHT22;5546;48.714;8.738;2023-06-22T06:29:03;30.30;81.90
10986;DHT22;5546;48.714;8.738;2023-06-22T06:31:29;30.50;81.70
10986;DHT22;5546;48.714;8.738;2023-06-22T06:33:56;30.90;79.00
10986;DHT22;5546;48.714;8.738;2023-06-22T06:36:21;31.60;78.10
10986;DHT22;5546;48.714;8.738;2023-06-22T06:38:47;30.30;77.10
10986;DHT22;5546;48.714;8.738;2023-06-22T06:41:16;31.40;78.20
10986;DHT22;5546;48.714;8.738;2023-06-22T06:43:42;31.40;77.20
10986;DHT22;5546;48.714;8.738;2023-06-22T06:46:10;31.80;75.30
10986;DHT22;5546;48.714;8.738;2023-06-22T06:48:36;31.80;76.30
10986;DHT22;5546;48.714;8.738;2023-06-22T06:51:02;31.80;75.20
10986;DHT22;5546;48.714;8.738;2023-06-22T06:53:27;31.80;75.80
10986;DHT22;5546;48.714;8.738;2023-06-22T06:55:54;32.90;71.10
10986;DHT22;5546;48.714;8.738;2023-06-22T06:58:19;32.90;71.60
10986;DHT22;5546;48.714;8.738;2023-06-22T07:00:45;32.50;71.50
10986;DHT22;5546;48.714;8.738;2023-06-22T07:03:11;32.90;72.00
10986;DHT22;5546;48.714;8.738;2023-06-22T07:05:36;33.50;69.60
10986;DHT22;5546;48.714;8.738;2023-06-22T07:08:02;33.60;69.50
10986;DHT22;5546;48.714;8.738;2023-06-22T07:10:29;34.00;68.70
10986;DHT22;5546;48.714;8.738;2023-06-22T07:12:56;34.60;67.20
10986;DHT22;5546;48.714;8.738;2023-06-22T07:15:22;35.10;64.90
10986;DHT22;5546;48.714;8.738;2023-06-22T07:20:15;33.80;65.50
10986;DHT22;5546;48.714;8.738;2023-06-22T07:22:42;34.10;65.40
10986;DHT22;5546;48.714;8.738;2023-06-22T07:27:46;36.30;59.80
10986;DHT22;5546;48.714;8.738;2023-06-22T07:30:13;35.80;59.20
10986;DHT22;5546;48.714;8.738;2023-06-22T07:32:39;35.40;59.30
10986;DHT22;5546;48.714;8.738;2023-06-22T07:35:05;35.60;58.90
10986;DHT22;5546;48.714;8.738;2023-06-22T07:39:59;34.00;62.50
10986;DHT22;5546;48.714;8.738;2023-06-22T07:42:25;34.40;61.90
10986;DHT22;5546;48.714;8.738;2023-06-22T07:44:51;34.10;62.20
10986;DHT22;5546;48.714;8.738;2023-06-22T07:47:17;34.90;61.10
10986;DHT22;5546;48.714;8.738;2023-06-22T07:49:46;35.20;60.00
10986;DHT22;5546;48.714;8.738;2023-06-22T07:52:14;35.60;59.60
10986;DHT22;5546;48.714;8.738;2023-06-22T07:54:40;36.20;58.20
10986;DHT22;5546;48.714;8.738;2023-06-22T07:59:38;35.00;60.90
10986;DHT22;5546;48.714;8.738;2023-06-22T08:02:04;35.40;60.10
10986;DHT22;5546;48.714;8.738;2023-06-22T08:04:30;34.20;61.20
10986;DHT22;5546;48.714;8.738;2023-06-22T08:06:57;33.60;63.00
10986;DHT22;5546;48.714;8.738;2023-06-22T08:16:41;31.10;68.70
10986;DHT22;5546;48.714;8.738;2023-06-22T08:21:33;30.40;72.60
10986;DHT22;5546;48.714;8.738;2023-06-22T08:23:58;29.90;74.10
10986;DHT22;5546;48.714;8.738;2023-06-22T08:26:24;29.70;75.00
10986;DHT22;5546;48.714;8.738;2023-06-22T08:28:49;29.10;76.50
10986;DHT22;5546;48.714;8.738;2023-06-22T08:31:15;28.50;79.20
10986;DHT22;5546;48.714;8.738;2023-06-22T08:36:08;29.40;78.40
10986;DHT22;5546;48.714;8.738;2023-06-22T08:38:36;30.10;81.10
10986;DHT22;5546;48.714;8.738;2023-06-22T08:45:54;31.40;72.10
10986;DHT22;5546;48.714;8.738;2023-06-22T08:48:19;31.90;70.50
10986;DHT22;5546;48.714;8.738;2023-06-22T08:50:45;33.30;68.50
10986;DHT22;5546;48.714;8.738;2023-06-22T08:53:10;34.90;63.40
10986;DHT22;5546;48.714;8.738;2023-06-22T08:55:36;35.50;61.00
10986;DHT22;5546;48.714;8.738;2023-06-22T08:58:01;35.00;61.50
10986;DHT22;5546;48.714;8.738;2023-06-22T09:00:27;33.60;64.60
10986;DHT22;5546;48.714;8.738;2023-06-22T09:02:54;33.30;64.90
10986;DHT22;5546;48.714;8.738;2023-06-22T09:05:24;32.90;66.60
10986;DHT22;5546;48.714;8.738;2023-06-22T09:07:51;32.40;67.60
10986;DHT22;5546;48.714;8.738;2023-06-22T09:15:10;30.90;71.80
10986;DHT22;5546;48.714;8.738;2023-06-22T09:20:02;32.50;69.80
10986;DHT22;5546;48.714;8.738;2023-06-22T09:22:31;33.80;65.80
10986;DHT22;5546;48.714;8.738;2023-06-22T09:24:57;34.70;64.20
10986;DHT22;5546;48.714;8.738;2023-06-22T09:27:22;36.60;60.50
10986;DHT22;5546;48.714;8.738;2023-06-22T09:29:49;36.70;60.70
10986;DHT22;5546;48.714;8.738;2023-06-22T09:37:06;36.70;58.60
10986;DHT22;5546;48.714;8.738;2023-06-22T09:39:32;36.60;58.80
10986;DHT22;5546;48.714;8.738;2023-06-22T09:42:01;36.60;58.90
10986;DHT22;5546;48.714;8.738;2023-06-22T09:44:26;37.20;58.40
10986;DHT22;5546;48.714;8.738;2023-06-22T09:46:52;38.10;56.70
10986;DHT22;5546;48.714;8.738;2023-06-22T09:49:17;37.80;56.80
10986;DHT22;5546;48.714;8.738;2023-06-22T09:51:43;37.50;56.90
10986;DHT22;5546;48.714;8.738;2023-06-22T09:54:08;38.00;57.70
10986;DHT22;5546;48.714;8.738;2023-06-22T09:56:34;36.90;56.70
10986;DHT22;5546;48.714;8.738;2023-06-22T09:59:02;37.20;57.90
10986;DHT22;5546;48.714;8.738;2023-06-22T10:01:28;37.60;57.50
10986;DHT22;5546;48.714;8.738;2023-06-22T10:03:55;38.20;55.30
10986;DHT22;5546;48.714;8.738;2023-06-22T10:06:21;38.70;54.60
10986;DHT22;5546;48.714;8.738;2023-06-22T10:08:46;37.00;56.00
10986;DHT22;5546;48.714;8.738;2023-06-22T10:11:13;36.70;56.90
10986;DHT22;5546;48.714;8.738;2023-06-22T10:13:39;37.20;56.30
10986;DHT22;5546;48.714;8.738;2023-06-22T10:16:04;37.60;55.20
10986;DHT22;5546;48.714;8.738;2023-06-22T10:18:30;37.90;55.10
10986;DHT22;5546;48.714;8.738;2023-06-22T10:20:56;38.00;55.60
10986;DHT22;5546;48.714;8.738;2023-06-22T10:23:21;38.90;54.90
10986;DHT22;5546;48.714;8.738;2023-06-22T10:25:47;40.00;52.90
10986;DHT22;5546;48.714;8.738;2023-06-22T10:28:13;40.00;52.30
10986;DHT22;5546;48.714;8.738;2023-06-22T10:30:42;40.40;51.50
10986;DHT22;5546;48.714;8.738;2023-06-22T10:33:11;40.20;51.90
10986;DHT22;5546;48.714;8.738;2023-06-22T10:35:37;39.50;52.50
10986;DHT22;5546;48.714;8.738;2023-06-22T10:38:03;39.50;51.90
10986;DHT22;5546;48.714;8.738;2023-06-22T10:40:29;39.10;52.30
10986;DHT22;5546;48.714;8.738;2023-06-22T10:42:55;39.10;52.30
10986;DHT22;5546;48.714;8.738;2023-06-22T10:45:20;39.20;52.00
10986;DHT22;5546;48.714;8.738;2023-06-22T10:47:46;38.90;51.40
10986;DHT22;5546;48.714;8.738;2023-06-22T10:50:12;38.30;52.30
10986;DHT22;5546;48.714;8.738;2023-06-22T10:52:39;37.10;55.00
10986;DHT22;5546;48.714;8.738;2023-06-22T10:55:08;38.00;53.60
10986;DHT22;5546;48.714;8.738;2023-06-22T10:57:33;39.00;52.00
10986;DHT22;5546;48.714;8.738;2023-06-22T10:59:59;39.10;52.70
10986;DHT22;5546;48.714;8.738;2023-06-22T11:02:25;40.10;52.80
10986;DHT22;5546;48.714;8.738;2023-06-22T11:04:51;41.20;49.70
10986;DHT22;5546;48.714;8.738;2023-06-22T11:07:16;41.60;49.10
10986;DHT22;5546;48.714;8.738;2023-06-22T11:09:45;39.90;49.40
10986;DHT22;5546;48.714;8.738;2023-06-22T11:21:54;37.10;59.90
10986;DHT22;5546;48.714;8.738;2023-06-22T11:31:37;36.70;59.10
10986;DHT22;5546;48.714;8.738;2023-06-22T11:36:30;36.90;58.30
10986;DHT22;5546;48.714;8.738;2023-06-22T11:38:58;36.70;61.40
10986;DHT22;5546;48.714;8.738;2023-06-22T11:43:49;35.70;64.20
10986;DHT22;5546;48.714;8.738;2023-06-22T11:46:15;35.80;64.70
10986;DHT22;5546;48.714;8.738;2023-06-22T11:51:06;35.50;66.50
10986;DHT22;5546;48.714;8.738;2023-06-22T11:53:34;35.40;67.90
10986;DHT22;5546;48.714;8.738;2023-06-22T11:58:26;35.40;67.30
10986;DHT22;5546;48.714;8.738;2023-06-22T12:00:52;34.90;69.00
10986;DHT22;5546;48.714;8.738;2023-06-22T12:03:18;34.50;69.80
10986;DHT22;5546;48.714;8.738;2023-06-22T12:10:37;35.30;68.30
10986;DHT22;5546;48.714;8.738;2023-06-22T12:20:20;34.70;70.90
10986;DHT22;5546;48.714;8.738;2023-06-22T12:22:46;34.90;69.70
10986;DHT22;5546;48.714;8.738;2023-06-22T12:34:57;34.20;72.50
10986;DHT22;5546;48.714;8.738;2023-06-22T12:42:15;36.00;64.70
10986;DHT22;5546;48.714;8.738;2023-06-22T12:44:41;36.70;61.10
10986;DHT22;5546;48.714;8.738;2023-06-22T12:47:07;37.00;62.10
10986;DHT22;5546;48.714;8.738;2023-06-22T12:49:36;37.30;60.80
10986;DHT22;5546;48.714;8.738;2023-06-22T12:52:03;37.30;61.20
10986;DHT22;5546;48.714;8.738;2023-06-22T12:54:29;37.20;59.20
10986;DHT22;5546;48.714;8.738;2023-06-22T13:06:41;36.60;66.70
10986;DHT22;5546;48.714;8.738;2023-06-22T13:21:16;36.00;69.20
10986;DHT22;5546;48.714;8.738;2023-06-22T13:28:34;36.00;64.00
10986;DHT22;5546;48.714;8.738;2023-06-22T13:30:59;36.00;62.70
10986;DHT22;5546;48.714;8.738;2023-06-22T13:52:54;35.20;60.00
10986;DHT22;5546;48.714;8.738;2023-06-22T13:57:46;35.30;53.30
10986;DHT22;5546;48.714;8.738;2023-06-22T14:00:12;35.70;51.90
10986;DHT22;5546;48.714;8.738;2023-06-22T14:02:38;35.50;49.40
10986;DHT22;5546;48.714;8.738;2023-06-22T14:05:05;35.90;48.80
10986;DHT22;5546;48.714;8.738;2023-06-22T14:07:31;36.00;57.40
10986;DHT22;5546;48.714;8.738;2023-06-22T14:12:24;36.70;49.60
10986;DHT22;5546;48.714;8.738;2023-06-22T14:14:49;36.30;56.00
10986;DHT22;5546;48.714;8.738;2023-06-22T14:22:07;35.70;55.90
10986;DHT22;5546;48.714;8.738;2023-06-22T14:31:53;36.00;46.20
10986;DHT22;5546;48.714;8.738;2023-06-22T14:34:19;35.80;45.60
10986;DHT22;5546;48.714;8.738;2023-06-22T14:44:02;37.30;46.20
10986;DHT22;5546;48.714;8.738;2023-06-22T14:46:28;37.40;43.80
10986;DHT22;5546;48.714;8.738;2023-06-22T14:48:53;36.70;44.20
10986;DHT22;5546;48.714;8.738;2023-06-22T14:53:50;36.00;45.90
10986;DHT22;5546;48.714;8.738;2023-06-22T14:58:42;35.20;49.20
10986;DHT22;5546;48.714;8.738;2023-06-22T15:06:03;35.60;52.20
10986;DHT22;5546;48.714;8.738;2023-06-22T15:08:29;35.60;47.30
10986;DHT22;5546;48.714;8.738;2023-06-22T15:10:57;35.40;49.40
10986;DHT22;5546;48.714;8.738;2023-06-22T15:15:50;34.00;48.40
10986;DHT22;5546;48.714;8.738;2023-06-22T15:20:43;33.60;53.80
10986;DHT22;5546;48.714;8.738;2023-06-22T15:32:57;34.10;57.10
10986;DHT22;5546;48.714;8.738;2023-06-22T15:35:23;34.30;58.20
10986;DHT22;5546;48.714;8.738;2023-06-22T15:37:49;34.30;56.20
10986;DHT22;5546;48.714;8.738;2023-06-22T15:40:17;34.80;52.10
10986;DHT22;5546;48.714;8.738;2023-06-22T15:42:44;34.70;52.20
10986;DHT22;5546;48.714;8.738;2023-06-22T15:45:11;34.40;49.90
10986;DHT22;5546;48.714;8.738;2023-06-22T15:52:29;35.10;52.50
10986;DHT22;5546;48.714;8.738;2023-06-22T15:59:50;34.10;50.40
10986;DHT22;5546;48.714;8.738;2023-06-22T16:04:41;34.20;49.70
10986;DHT22;5546;48.714;8.738;2023-06-22T16:21:43;32.40;52.20
10986;DHT22;5546;48.714;8.738;2023-06-22T16:26:39;32.60;52.40
10986;DHT22;5546;48.714;8.738;2023-06-22T16:29:06;32.30;53.50
10986;DHT22;5546;48.714;8.738;2023-06-22T16:33:57;31.90;64.60
10986;DHT22;5546;48.714;8.738;2023-06-22T16:36:23;31.80;62.10
10986;DHT22;5546;48.714;8.738;2023-06-22T16:41:18;31.40;58.70
10986;DHT22;5546;48.714;8.738;2023-06-22T16:43:44;31.00;67.30
10986;DHT22;5546;48.714;8.738;2023-06-22T16:51:02;30.90;69.20
10986;DHT22;5546;48.714;8.738;2023-06-22T16:53:27;30.90;71.00
10986;DHT22;5546;48.714;8.738;2023-06-22T16:55:53;30.40;70.10
10986;DHT22;5546;48.714;8.738;2023-06-22T16:58:20;30.50;70.50
10986;DHT22;5546;48.714;8.738;2023-06-22T17:00:49;29.70;72.10
10986;DHT22;5546;48.714;8.738;2023-06-22T17:03:22;29.60;72.60
10986;DHT22;5546;48.714;8.738;2023-06-22T17:05:52;29.40;71.50
10986;DHT22;5546;48.714;8.738;2023-06-22T17:08:18;29.50;70.30
10986;DHT22;5546;48.714;8.738;2023-06-22T17:13:09;29.10;70.40
10986;DHT22;5546;48.714;8.738;2023-06-22T17:15:35;28.90;72.60
10986;DHT22;5546;48.714;8.738;2023-06-22T17:18:07;29.30;69.30
10986;DHT22;5546;48.714;8.738;2023-06-22T17:25:28;29.10;77.70
10986;DHT22;5546;48.714;8.738;2023-06-22T17:27:59;28.80;77.50
10986;DHT22;5546;48.714;8.738;2023-06-22T17:30:25;28.30;80.20
10986;DHT22;5546;48.714;8.738;2023-06-22T17:32:51;27.80;75.80
10986;DHT22;5546;48.714;8.738;2023-06-22T17:37:57;27.80;78.70
10986;DHT22;5546;48.714;8.738;2023-06-22T17:40:24;28.30;76.80
10986;DHT22;5546;48.714;8.738;2023-06-22T17:42:51;28.30;78.40
10986;DHT22;5546;48.714;8.738;2023-06-22T17:45:28;28.40;82.50
10986;DHT22;5546;48.714;8.738;2023-06-22T17:50:24;27.80;81.00
10986;DHT22;5546;48.714;8.738;2023-06-22T17:52:54;27.40;81.90
10986;DHT22;5546;48.714;8.738;2023-06-22T17:57:50;26.60;90.10
10986;DHT22;5546;48.714;8.738;2023-06-22T18:00:18;26.60;90.10
10986;DHT22;5546;48.714;8.738;2023-06-22T18:10:04;26.60;91.10
10986;DHT22;5546;48.714;8.738;2023-06-22T18:12:31;26.10;93.00
10986;DHT22;5546;48.714;8.738;2023-06-22T18:14:57;25.80;92.50
10986;DHT22;5546;48.714;8.738;2023-06-22T18:17:23;26.00;93.50
10986;DHT22;5546;48.714;8.738;2023-06-22T18:19:50;26.00;93.00
10986;DHT22;5546;48.714;8.738;2023-06-22T18:22:17;25.40;94.50
10986;DHT22;5546;48.714;8.738;2023-06-22T18:24:44;25.40;94.80
10986;DHT22;5546;48.714;8.738;2023-06-22T18:27:11;24.90;95.40
10986;DHT22;5546;48.714;8.738;2023-06-22T18:29:39;25.10;96.00
10986;DHT22;5546;48.714;8.738;2023-06-22T18:32:05;25.10;96.30
10986;DHT22;5546;48.714;8.738;2023-06-22T18:34:31;25.10;96.40
10986;DHT22;5546;48.714;8.738;2023-06-22T18:36:59;25.10;96.00
10986;DHT22;5546;48.714;8.738;2023-06-22T18:39:26;24.60;96.70
10986;DHT22;5546;48.714;8.738;2023-06-22T18:41:54;24.40;96.10
10986;DHT22;5546;48.714;8.738;2023-06-22T18:44:22;24.50;95.70
10986;DHT22;5546;48.714;8.738;2023-06-22T18:47:03;24.70;94.50
10986;DHT22;5546;48.714;8.738;2023-06-22T18:49:45;24.90;95.70
10986;DHT22;5546;48.714;8.738;2023-06-22T18:54:44;25.30;95.00
10986;DHT22;5546;48.714;8.738;2023-06-22T18:57:27;25.50;94.20
10986;DHT22;5546;48.714;8.738;2023-06-22T19:13:26;25.10;96.20
10986;DHT22;5546;48.714;8.738;2023-06-22T19:16:00;25.00;96.20
10986;DHT22;5546;48.714;8.738;2023-06-22T19:18:36;25.10;95.70
10986;DHT22;5546;48.714;8.738;2023-06-22T19:25:56;25.00;94.90
10986;DHT22;5546;48.714;8.738;2023-06-22T19:28:26;25.30;94.10
10986;DHT22;5546;48.714;8.738;2023-06-22T19:30:56;25.20;93.50
10986;DHT22;5546;48.714;8.738;2023-06-22T19:35:51;25.20;94.60
10986;DHT22;5546;48.714;8.738;2023-06-22T19:38:17;25.10;94.90
10986;DHT22;5546;48.714;8.738;2023-06-22T19:40:46;24.80;95.30
10986;DHT22;5546;48.714;8.738;2023-06-22T19:43:13;24.80;95.20
10986;DHT22;5546;48.714;8.738;2023-06-22T19:45:42;24.90;95.20
10986;DHT22;5546;48.714;8.738;2023-06-22T19:48:13;25.10;94.10
10986;DHT22;5546;48.714;8.738;2023-06-22T19:50:39;24.90;94.60
10986;DHT22;5546;48.714;8.738;2023-06-22T19:53:13;24.40;95.20
10986;DHT22;5546;48.714;8.738;2023-06-22T19:55:42;24.30;95.70
10986;DHT22;5546;48.714;8.738;2023-06-22T19:58:09;24.30;95.50
10986;DHT22;5546;48.714;8.738;2023-06-22T20:03:02;24.70;95.10
10986;DHT22;5546;48.714;8.738;2023-06-22T20:07:54;24.60;95.80
10986;DHT22;5546;48.714;8.738;2023-06-22T20:10:21;24.80;95.10
10986;DHT22;5546;48.714;8.738;2023-06-22T20:12:48;24.70;95.10
10986;DHT22;5546;48.714;8.738;2023-06-22T20:15:25;24.40;94.50
10986;DHT22;5546;48.714;8.738;2023-06-22T20:18:03;24.30;94.10
10986;DHT22;5546;48.714;8.738;2023-06-22T20:20:31;24.40;94.30
10986;DHT22;5546;48.714;8.738;2023-06-22T20:23:01;24.80;93.90
10986;DHT22;5546;48.714;8.738;2023-06-22T20:25:32;25.00;93.50
10986;DHT22;5546;48.714;8.738;2023-06-22T20:28:10;25.00;92.70
10986;DHT22;5546;48.714;8.738;2023-06-22T20:30:36;24.90;93.20
10986;DHT22;5546;48.714;8.738;2023-06-22T20:33:02;24.90;92.80
10986;DHT22;5546;48.714;8.738;2023-06-22T20:37:58;24.70;93.60
10986;DHT22;5546;48.714;8.738;2023-06-22T20:40:24;24.80;93.20
10986;DHT22;5546;48.714;8.738;2023-06-22T20:42:54;24.60;94.20
10986;DHT22;5546;48.714;8.738;2023-06-22T20:45:20;24.50;94.10
10986;DHT22;5546;48.714;8.738;2023-06-22T20:47:46;24.20;94.80
10986;DHT22;5546;48.714;8.738;2023-06-22T20:50:11;23.80;95.40
10986;DHT22;5546;48.714;8.738;2023-06-22T20:52:37;23.80;95.90
10986;DHT22;5546;48.714;8.738;2023-06-22T20:55:05;23.60;96.60
10986;DHT22;5546;48.714;8.738;2023-06-22T20:57:31;23.50;97.20
10986;DHT22;5546;48.714;8.738;2023-06-22T20:59:57;23.20;97.40
10986;DHT22;5546;48.714;8.738;2023-06-22T21:02:22;22.90;98.40
10986;DHT22;5546;48.714;8.738;2023-06-22T21:04:48;22.60;98.10
10986;DHT22;5546;48.714;8.738;2023-06-22T21:07:15;22.30;98.20
10986;DHT22;5546;48.714;8.738;2023-06-22T21:12:07;22.00;99.80
10986;DHT22;5546;48.714;8.738;2023-06-22T21:14:34;21.70;98.90
10986;DHT22;5546;48.714;8.738;2023-06-22T21:16:59;21.70;99.30
10986;DHT22;5546;48.714;8.738;2023-06-22T21:34:00;21.70;98.90
10986;DHT22;5546;48.714;8.738;2023-06-22T21:36:26;21.90;99.10
10986;DHT22;5546;48.714;8.738;2023-06-22T21:38:51;21.90;98.30
10986;DHT22;5546;48.714;8.738;2023-06-22T21:41:17;21.90;99.40
10986;DHT22;5546;48.714;8.738;2023-06-22T21:43:43;21.80;98.50
10986;DHT22;5546;48.714;8.738;2023-06-22T21:55:52;21.90;99.90
10986;DHT22;5546;48.714;8.738;2023-06-22T21:58:19;22.10;99.80
10986;DHT22;5546;48.714;8.738;2023-06-22T22:08:03;22.40;99.10
10986;DHT22;5546;48.714;8.738;2023-06-22T22:10:29;22.30;99.50
10986;DHT22;5546;48.714;8.738;2023-06-22T22:15:21;22.40;99.10
10986;DHT22;5546;48.714;8.738;2023-06-22T22:17:47;22.50;98.70
10986;DHT22;5546;48.714;8.738;2023-06-22T22:25:05;22.60;98.30
10986;DHT22;5546;48.714;8.738;2023-06-22T22:47:00;22.80;98.30
10986;DHT22;5546;48.714;8.738;2023-06-22T22:49:26;22.70;98.60
10986;DHT22;5546;48.714;8.738;2023-06-22T22:54:18;22.90;98.00
10986;DHT22;5546;48.714;8.738;2023-06-22T22:56:47;22.70;98.90
10986;DHT22;5546;48.714;8.738;2023-06-22T23:04:05;23.10;97.90
10986;DHT22;5546;48.714;8.738;2023-06-22T23:08:57;22.90;98.40
10986;DHT22;5546;48.714;8.738;2023-06-22T23:11:26;23.00;97.70
10986;DHT22;5546;48.714;8.738;2023-06-22T23:13:55;22.70;98.50
10986;DHT22;5546;48.714;8.738;2023-06-22T23:16:26;22.60;98.80
10986;DHT22;5546;48.714;8.738;2023-06-22T23:21:17;22.30;99.70
10986;DHT22;5546;48.714;8.738;2023-06-22T23:23:43;22.40;99.10
10986;DHT22;5546;48.714;8.738;2023-06-22T23:26:09;22.30;99.70
10986;DHT22;5546;48.714;8.738;2023-06-22T23:28:35;22.20;99.90
10986;DHT22;5546;48.714;8.738;2023-06-22T23:35:55;22.50;99.30
10986;DHT22;5546;48.714;8.738;2023-06-22T23:57:49;22.60;99.20
